sensor_id;sensor_type;location;lat;lon;timestamp;P1;durP1;ratioP1;P2;durP2;ratioP2
5456;SDS011;2751;49.802;9.944;2022-09-24T00:00:31;7.47;;;6.70;;
5456;SDS011;2751;49.802;9.944;2022-09-24T00:02:58;7.90;;;7.07;;
5456;SDS011;2751;49.802;9.944;2022-09-24T00:05:24;7.87;;;6.73;;
5456;SDS011;2751;49.802;9.944;2022-09-24T00:07:51;8.40;;;7.47;;
5456;SDS011;2751;49.802;9.944;2022-09-24T00:10:19;12.30;;;8.37;;
5456;SDS011;2751;49.802;9.944;2022-09-24T00:12:48;13.20;;;7.87;;
5456;SDS011;2751;49.802;9.944;2022-09-24T00:15:16;8.30;;;7.47;;
5456;SDS011;2751;49.802;9.944;2022-09-24T00:17:43;8.63;;;7.70;;
5456;SDS011;2751;49.802;9.944;2022-09-24T00:20:11;8.37;;;7.67;;
5456;SDS011;2751;49.802;9.944;2022-09-24T00:22:38;10.33;;;7.60;;
5456;SDS011;2751;49.802;9.944;2022-09-24T00:25:05;8.90;;;7.50;;
5456;SDS011;2751;49.802;9.944;2022-09-24T00:27:51;9.90;;;7.77;;
5456;SDS011;2751;49.802;9.944;2022-09-24T00:30:18;10.57;;;7.70;;
5456;SDS011;2751;49.802;9.944;2022-09-24T00:32:45;9.70;;;7.97;;
5456;SDS011;2751;49.802;9.944;2022-09-24T00:35:12;8.40;;;7.53;;
5456;SDS011;2751;49.802;9.944;2022-09-24T00:37:39;8.57;;;7.70;;
5456;SDS011;2751;49.802;9.944;2022-09-24T00:40:07;8.70;;;7.77;;
5456;SDS011;2751;49.802;9.944;2022-09-24T00:42:34;7.93;;;7.20;;
5456;SDS011;2751;49.802;9.944;2022-09-24T00:45:03;8.50;;;7.70;;
5456;SDS011;2751;49.802;9.944;2022-09-24T00:47:31;9.03;;;7.70;;
5456;SDS011;2751;49.802;9.944;2022-09-24T00:50:13;9.40;;;7.53;;
5456;SDS011;2751;49.802;9.944;2022-09-24T00:52:44;7.87;;;7.07;;
5456;SDS011;2751;49.802;9.944;2022-09-24T00:55:15;8.60;;;7.10;;
5456;SDS011;2751;49.802;9.944;2022-09-24T00:57:44;8.50;;;7.57;;
5456;SDS011;2751;49.802;9.944;2022-09-24T01:00:15;8.87;;;6.93;;
5456;SDS011;2751;49.802;9.944;2022-09-24T01:02:43;7.83;;;6.83;;
5456;SDS011;2751;49.802;9.944;2022-09-24T01:05:12;7.53;;;6.17;;
5456;SDS011;2751;49.802;9.944;2022-09-24T01:07:39;11.73;;;6.80;;
5456;SDS011;2751;49.802;9.944;2022-09-24T01:10:06;7.20;;;6.50;;
5456;SDS011;2751;49.802;9.944;2022-09-24T01:12:36;7.33;;;6.63;;
5456;SDS011;2751;49.802;9.944;2022-09-24T01:15:16;8.50;;;6.70;;
5456;SDS011;2751;49.802;9.944;2022-09-24T01:17:51;7.67;;;6.93;;
5456;SDS011;2751;49.802;9.944;2022-09-24T01:23:42;13.00;;;7.30;;
5456;SDS011;2751;49.802;9.944;2022-09-24T01:26:30;10.13;;;7.53;;
5456;SDS011;2751;49.802;9.944;2022-09-24T01:29:17;13.20;;;8.20;;
5456;SDS011;2751;49.802;9.944;2022-09-24T01:31:57;15.40;;;8.53;;
5456;SDS011;2751;49.802;9.944;2022-09-24T01:34:33;11.77;;;8.27;;
5456;SDS011;2751;49.802;9.944;2022-09-24T01:37:05;8.87;;;7.67;;
5456;SDS011;2751;49.802;9.944;2022-09-24T01:39:32;10.13;;;7.60;;
5456;SDS011;2751;49.802;9.944;2022-09-24T01:42:03;8.63;;;7.40;;
5456;SDS011;2751;49.802;9.944;2022-09-24T01:44:32;9.83;;;7.53;;
5456;SDS011;2751;49.802;9.944;2022-09-24T01:47:02;7.00;;;6.30;;
5456;SDS011;2751;49.802;9.944;2022-09-24T01:49:30;9.17;;;7.83;;
5456;SDS011;2751;49.802;9.944;2022-09-24T01:51:57;10.80;;;8.17;;
5456;SDS011;2751;49.802;9.944;2022-09-24T01:54:28;13.60;;;8.43;;
5456;SDS011;2751;49.802;9.944;2022-09-24T01:57:03;8.17;;;7.33;;
5456;SDS011;2751;49.802;9.944;2022-09-24T01:59:39;7.70;;;7.00;;
5456;SDS011;2751;49.802;9.944;2022-09-24T02:02:11;10.30;;;7.30;;
5456;SDS011;2751;49.802;9.944;2022-09-24T02:04:43;9.83;;;7.33;;
5456;SDS011;2751;49.802;9.944;2022-09-24T02:07:18;9.20;;;7.37;;
5456;SDS011;2751;49.802;9.944;2022-09-24T02:09:49;8.50;;;7.70;;
5456;SDS011;2751;49.802;9.944;2022-09-24T02:12:17;7.03;;;6.37;;
5456;SDS011;2751;49.802;9.944;2022-09-24T02:14:49;8.30;;;7.53;;
5456;SDS011;2751;49.802;9.944;2022-09-24T02:17:19;10.70;;;6.63;;
5456;SDS011;2751;49.802;9.944;2022-09-24T02:19:49;8.40;;;6.80;;
5456;SDS011;2751;49.802;9.944;2022-09-24T02:22:17;8.87;;;6.70;;
5456;SDS011;2751;49.802;9.944;2022-09-24T02:24:46;10.20;;;7.00;;
5456;SDS011;2751;49.802;9.944;2022-09-24T02:27:15;8.50;;;7.20;;
5456;SDS011;2751;49.802;9.944;2022-09-24T02:29:43;8.70;;;7.07;;
5456;SDS011;2751;49.802;9.944;2022-09-24T02:32:13;8.20;;;7.30;;
5456;SDS011;2751;49.802;9.944;2022-09-24T02:34:44;8.40;;;7.50;;
5456;SDS011;2751;49.802;9.944;2022-09-24T02:37:14;7.27;;;6.53;;
5456;SDS011;2751;49.802;9.944;2022-09-24T02:39:42;8.10;;;6.97;;
5456;SDS011;2751;49.802;9.944;2022-09-24T02:42:09;6.97;;;6.30;;
5456;SDS011;2751;49.802;9.944;2022-09-24T02:44:39;7.30;;;6.50;;
5456;SDS011;2751;49.802;9.944;2022-09-24T02:47:06;10.63;;;7.23;;
5456;SDS011;2751;49.802;9.944;2022-09-24T02:49:35;7.43;;;6.50;;
5456;SDS011;2751;49.802;9.944;2022-09-24T02:52:02;10.13;;;6.63;;
5456;SDS011;2751;49.802;9.944;2022-09-24T02:54:29;7.17;;;6.00;;
5456;SDS011;2751;49.802;9.944;2022-09-24T02:56:56;7.40;;;6.60;;
5456;SDS011;2751;49.802;9.944;2022-09-24T02:59:23;7.30;;;6.60;;
5456;SDS011;2751;49.802;9.944;2022-09-24T03:01:50;7.60;;;6.03;;
5456;SDS011;2751;49.802;9.944;2022-09-24T03:04:17;7.70;;;6.30;;
5456;SDS011;2751;49.802;9.944;2022-09-24T03:06:45;8.00;;;6.40;;
5456;SDS011;2751;49.802;9.944;2022-09-24T03:09:12;9.30;;;6.77;;
5456;SDS011;2751;49.802;9.944;2022-09-24T03:11:39;9.90;;;7.10;;
5456;SDS011;2751;49.802;9.944;2022-09-24T03:14:06;7.30;;;6.30;;
5456;SDS011;2751;49.802;9.944;2022-09-24T03:16:33;7.20;;;6.60;;
5456;SDS011;2751;49.802;9.944;2022-09-24T03:19:00;7.20;;;6.50;;
5456;SDS011;2751;49.802;9.944;2022-09-24T03:21:27;7.57;;;6.77;;
5456;SDS011;2751;49.802;9.944;2022-09-24T03:23:55;8.30;;;7.20;;
5456;SDS011;2751;49.802;9.944;2022-09-24T03:26:22;9.30;;;7.07;;
5456;SDS011;2751;49.802;9.944;2022-09-24T03:28:49;8.17;;;7.20;;
5456;SDS011;2751;49.802;9.944;2022-09-24T03:31:16;8.13;;;6.93;;
5456;SDS011;2751;49.802;9.944;2022-09-24T03:33:42;11.77;;;7.90;;
5456;SDS011;2751;49.802;9.944;2022-09-24T03:36:11;9.50;;;7.30;;
5456;SDS011;2751;49.802;9.944;2022-09-24T03:38:40;11.10;;;7.27;;
5456;SDS011;2751;49.802;9.944;2022-09-24T03:41:10;9.50;;;7.80;;
5456;SDS011;2751;49.802;9.944;2022-09-24T03:43:37;7.17;;;6.47;;
5456;SDS011;2751;49.802;9.944;2022-09-24T03:46:05;7.30;;;6.57;;
5456;SDS011;2751;49.802;9.944;2022-09-24T03:48:33;10.73;;;6.70;;
5456;SDS011;2751;49.802;9.944;2022-09-24T03:51:02;6.80;;;6.20;;
5456;SDS011;2751;49.802;9.944;2022-09-24T03:53:29;7.70;;;7.00;;
5456;SDS011;2751;49.802;9.944;2022-09-24T03:55:57;7.83;;;6.60;;
5456;SDS011;2751;49.802;9.944;2022-09-24T03:58:27;12.70;;;6.67;;
5456;SDS011;2751;49.802;9.944;2022-09-24T04:00:56;7.80;;;7.00;;
5456;SDS011;2751;49.802;9.944;2022-09-24T04:03:23;14.03;;;6.50;;
5456;SDS011;2751;49.802;9.944;2022-09-24T04:05:51;8.93;;;6.90;;
5456;SDS011;2751;49.802;9.944;2022-09-24T04:08:18;13.10;;;7.20;;
5456;SDS011;2751;49.802;9.944;2022-09-24T04:10:45;8.20;;;7.37;;
5456;SDS011;2751;49.802;9.944;2022-09-24T04:13:12;10.30;;;7.07;;
5456;SDS011;2751;49.802;9.944;2022-09-24T04:15:41;9.53;;;8.10;;
5456;SDS011;2751;49.802;9.944;2022-09-24T04:18:08;11.53;;;8.00;;
5456;SDS011;2751;49.802;9.944;2022-09-24T04:20:35;7.67;;;6.23;;
5456;SDS011;2751;49.802;9.944;2022-09-24T04:23:02;7.20;;;6.60;;
5456;SDS011;2751;49.802;9.944;2022-09-24T04:25:29;7.53;;;6.83;;
5456;SDS011;2751;49.802;9.944;2022-09-24T04:27:58;7.13;;;6.47;;
5456;SDS011;2751;49.802;9.944;2022-09-24T04:30:26;7.70;;;6.87;;
5456;SDS011;2751;49.802;9.944;2022-09-24T04:32:55;7.43;;;6.57;;
5456;SDS011;2751;49.802;9.944;2022-09-24T04:35:24;7.13;;;6.43;;
5456;SDS011;2751;49.802;9.944;2022-09-24T04:37:51;9.27;;;7.00;;
5456;SDS011;2751;49.802;9.944;2022-09-24T04:40:18;7.23;;;6.47;;
5456;SDS011;2751;49.802;9.944;2022-09-24T04:42:45;8.20;;;5.93;;
5456;SDS011;2751;49.802;9.944;2022-09-24T04:45:12;8.40;;;6.87;;
5456;SDS011;2751;49.802;9.944;2022-09-24T04:47:45;8.27;;;6.57;;
5456;SDS011;2751;49.802;9.944;2022-09-24T04:50:18;7.30;;;6.60;;
5456;SDS011;2751;49.802;9.944;2022-09-24T04:52:45;10.63;;;7.53;;
5456;SDS011;2751;49.802;9.944;2022-09-24T04:55:12;7.40;;;6.70;;
5456;SDS011;2751;49.802;9.944;2022-09-24T04:57:39;13.40;;;8.17;;
5456;SDS011;2751;49.802;9.944;2022-09-24T05:00:07;9.53;;;7.67;;
5456;SDS011;2751;49.802;9.944;2022-09-24T05:02:38;8.20;;;7.40;;
5456;SDS011;2751;49.802;9.944;2022-09-24T05:05:05;10.47;;;7.40;;
5456;SDS011;2751;49.802;9.944;2022-09-24T05:07:34;8.40;;;7.60;;
5456;SDS011;2751;49.802;9.944;2022-09-24T05:10:01;7.90;;;6.83;;
5456;SDS011;2751;49.802;9.944;2022-09-24T05:12:28;8.17;;;7.07;;
5456;SDS011;2751;49.802;9.944;2022-09-24T05:14:55;8.67;;;7.77;;
5456;SDS011;2751;49.802;9.944;2022-09-24T05:17:22;8.70;;;7.80;;
5456;SDS011;2751;49.802;9.944;2022-09-24T05:19:49;8.30;;;7.50;;
5456;SDS011;2751;49.802;9.944;2022-09-24T05:22:16;10.13;;;7.33;;
5456;SDS011;2751;49.802;9.944;2022-09-24T05:24:44;8.13;;;6.97;;
5456;SDS011;2751;49.802;9.944;2022-09-24T05:27:11;9.80;;;7.93;;
5456;SDS011;2751;49.802;9.944;2022-09-24T05:29:37;10.93;;;8.10;;
5456;SDS011;2751;49.802;9.944;2022-09-24T05:32:05;8.73;;;7.50;;
5456;SDS011;2751;49.802;9.944;2022-09-24T05:34:33;10.73;;;7.50;;
5456;SDS011;2751;49.802;9.944;2022-09-24T05:37:00;11.30;;;7.47;;
5456;SDS011;2751;49.802;9.944;2022-09-24T05:39:28;8.33;;;7.07;;
5456;SDS011;2751;49.802;9.944;2022-09-24T05:41:57;8.17;;;7.37;;
5456;SDS011;2751;49.802;9.944;2022-09-24T05:44:23;8.30;;;7.37;;
5456;SDS011;2751;49.802;9.944;2022-09-24T05:46:50;8.07;;;7.27;;
5456;SDS011;2751;49.802;9.944;2022-09-24T05:49:17;9.77;;;7.77;;
5456;SDS011;2751;49.802;9.944;2022-09-24T05:51:46;9.40;;;7.37;;
5456;SDS011;2751;49.802;9.944;2022-09-24T05:54:14;10.67;;;7.57;;
5456;SDS011;2751;49.802;9.944;2022-09-24T05:56:41;8.87;;;7.97;;
5456;SDS011;2751;49.802;9.944;2022-09-24T05:59:09;10.30;;;7.50;;
5456;SDS011;2751;49.802;9.944;2022-09-24T06:01:37;9.40;;;7.30;;
5456;SDS011;2751;49.802;9.944;2022-09-24T06:04:04;8.67;;;7.37;;
5456;SDS011;2751;49.802;9.944;2022-09-24T06:06:31;9.27;;;7.57;;
5456;SDS011;2751;49.802;9.944;2022-09-24T06:08:58;8.67;;;6.87;;
5456;SDS011;2751;49.802;9.944;2022-09-24T06:11:25;11.27;;;8.00;;
5456;SDS011;2751;49.802;9.944;2022-09-24T06:13:52;8.30;;;7.50;;
5456;SDS011;2751;49.802;9.944;2022-09-24T06:16:20;8.00;;;7.13;;
5456;SDS011;2751;49.802;9.944;2022-09-24T06:18:47;10.00;;;7.37;;
5456;SDS011;2751;49.802;9.944;2022-09-24T06:21:14;8.63;;;6.47;;
5456;SDS011;2751;49.802;9.944;2022-09-24T06:23:42;7.80;;;7.07;;
5456;SDS011;2751;49.802;9.944;2022-09-24T06:26:10;10.00;;;7.10;;
5456;SDS011;2751;49.802;9.944;2022-09-24T06:28:39;8.00;;;7.20;;
5456;SDS011;2751;49.802;9.944;2022-09-24T06:31:07;10.50;;;6.73;;
5456;SDS011;2751;49.802;9.944;2022-09-24T06:33:37;8.40;;;6.50;;
5456;SDS011;2751;49.802;9.944;2022-09-24T06:36:04;7.00;;;6.27;;
5456;SDS011;2751;49.802;9.944;2022-09-24T06:38:31;8.63;;;6.70;;
5456;SDS011;2751;49.802;9.944;2022-09-24T06:40:59;7.53;;;6.73;;
5456;SDS011;2751;49.802;9.944;2022-09-24T06:43:27;8.70;;;6.80;;
5456;SDS011;2751;49.802;9.944;2022-09-24T06:45:54;7.70;;;7.00;;
5456;SDS011;2751;49.802;9.944;2022-09-24T06:48:22;7.67;;;6.97;;
5456;SDS011;2751;49.802;9.944;2022-09-24T06:50:51;7.13;;;6.43;;
5456;SDS011;2751;49.802;9.944;2022-09-24T06:53:18;8.00;;;7.20;;
5456;SDS011;2751;49.802;9.944;2022-09-24T06:55:45;9.30;;;8.13;;
5456;SDS011;2751;49.802;9.944;2022-09-24T06:58:13;8.20;;;7.40;;
5456;SDS011;2751;49.802;9.944;2022-09-24T07:00:48;8.50;;;7.60;;
5456;SDS011;2751;49.802;9.944;2022-09-24T07:03:17;9.53;;;7.23;;
5456;SDS011;2751;49.802;9.944;2022-09-24T07:05:44;8.53;;;7.57;;
5456;SDS011;2751;49.802;9.944;2022-09-24T07:08:12;8.93;;;8.03;;
5456;SDS011;2751;49.802;9.944;2022-09-24T07:10:40;7.87;;;7.07;;
5456;SDS011;2751;49.802;9.944;2022-09-24T07:13:07;8.20;;;7.20;;
5456;SDS011;2751;49.802;9.944;2022-09-24T07:15:36;7.47;;;6.77;;
5456;SDS011;2751;49.802;9.944;2022-09-24T07:18:03;7.43;;;6.73;;
5456;SDS011;2751;49.802;9.944;2022-09-24T07:20:30;7.40;;;6.63;;
5456;SDS011;2751;49.802;9.944;2022-09-24T07:22:58;7.20;;;6.50;;
5456;SDS011;2751;49.802;9.944;2022-09-24T07:25:26;6.80;;;6.10;;
5456;SDS011;2751;49.802;9.944;2022-09-24T07:27:53;9.03;;;5.90;;
5456;SDS011;2751;49.802;9.944;2022-09-24T07:30:20;7.53;;;6.10;;
5456;SDS011;2751;49.802;9.944;2022-09-24T07:32:52;6.47;;;5.87;;
5456;SDS011;2751;49.802;9.944;2022-09-24T07:35:20;7.17;;;6.33;;
5456;SDS011;2751;49.802;9.944;2022-09-24T07:37:54;7.60;;;6.47;;
5456;SDS011;2751;49.802;9.944;2022-09-24T07:40:23;6.97;;;6.37;;
5456;SDS011;2751;49.802;9.944;2022-09-24T07:42:52;7.30;;;6.53;;
5456;SDS011;2751;49.802;9.944;2022-09-24T07:45:19;6.80;;;6.27;;
5456;SDS011;2751;49.802;9.944;2022-09-24T07:47:46;6.77;;;5.87;;
5456;SDS011;2751;49.802;9.944;2022-09-24T07:50:13;6.43;;;5.93;;
5456;SDS011;2751;49.802;9.944;2022-09-24T07:52:41;14.17;;;6.13;;
5456;SDS011;2751;49.802;9.944;2022-09-24T07:55:09;7.50;;;5.80;;
5456;SDS011;2751;49.802;9.944;2022-09-24T07:57:36;7.80;;;5.90;;
5456;SDS011;2751;49.802;9.944;2022-09-24T08:00:05;6.33;;;5.73;;
5456;SDS011;2751;49.802;9.944;2022-09-24T08:02:33;6.70;;;5.90;;
5456;SDS011;2751;49.802;9.944;2022-09-24T08:05:00;7.90;;;6.00;;
5456;SDS011;2751;49.802;9.944;2022-09-24T08:07:27;6.50;;;5.90;;
5456;SDS011;2751;49.802;9.944;2022-09-24T08:09:54;7.40;;;6.70;;
5456;SDS011;2751;49.802;9.944;2022-09-24T08:12:20;7.37;;;6.67;;
5456;SDS011;2751;49.802;9.944;2022-09-24T08:14:51;7.30;;;6.40;;
5456;SDS011;2751;49.802;9.944;2022-09-24T08:17:19;8.50;;;7.20;;
5456;SDS011;2751;49.802;9.944;2022-09-24T08:19:46;9.53;;;6.60;;
5456;SDS011;2751;49.802;9.944;2022-09-24T08:22:13;9.27;;;7.53;;
5456;SDS011;2751;49.802;9.944;2022-09-24T08:24:40;8.50;;;7.80;;
5456;SDS011;2751;49.802;9.944;2022-09-24T08:27:07;8.03;;;7.27;;
5456;SDS011;2751;49.802;9.944;2022-09-24T08:29:34;8.57;;;7.87;;
5456;SDS011;2751;49.802;9.944;2022-09-24T08:32:01;14.83;;;7.40;;
5456;SDS011;2751;49.802;9.944;2022-09-24T08:34:29;8.27;;;7.50;;
5456;SDS011;2751;49.802;9.944;2022-09-24T08:37:02;7.73;;;7.13;;
5456;SDS011;2751;49.802;9.944;2022-09-24T08:39:29;9.20;;;8.00;;
5456;SDS011;2751;49.802;9.944;2022-09-24T08:41:57;8.87;;;7.20;;
5456;SDS011;2751;49.802;9.944;2022-09-24T08:44:28;9.07;;;7.67;;
5456;SDS011;2751;49.802;9.944;2022-09-24T08:47:19;7.90;;;7.07;;
5456;SDS011;2751;49.802;9.944;2022-09-24T08:50:01;13.00;;;7.70;;
5456;SDS011;2751;49.802;9.944;2022-09-24T08:52:38;9.40;;;8.00;;
5456;SDS011;2751;49.802;9.944;2022-09-24T08:55:29;8.17;;;7.40;;
5456;SDS011;2751;49.802;9.944;2022-09-24T08:58:03;8.40;;;7.70;;
5456;SDS011;2751;49.802;9.944;2022-09-24T09:00:50;7.80;;;7.10;;
5456;SDS011;2751;49.802;9.944;2022-09-24T09:03:26;8.13;;;6.97;;
5456;SDS011;2751;49.802;9.944;2022-09-24T09:05:59;8.80;;;7.93;;
5456;SDS011;2751;49.802;9.944;2022-09-24T09:08:32;9.07;;;8.30;;
5456;SDS011;2751;49.802;9.944;2022-09-24T09:11:06;7.77;;;7.10;;
5456;SDS011;2751;49.802;9.944;2022-09-24T09:13:35;9.30;;;8.40;;
5456;SDS011;2751;49.802;9.944;2022-09-24T09:16:05;8.70;;;7.90;;
5456;SDS011;2751;49.802;9.944;2022-09-24T09:18:41;9.27;;;8.37;;
5456;SDS011;2751;49.802;9.944;2022-09-24T09:21:14;8.70;;;7.90;;
5456;SDS011;2751;49.802;9.944;2022-09-24T09:23:51;9.80;;;8.90;;
5456;SDS011;2751;49.802;9.944;2022-09-24T09:26:19;11.10;;;8.37;;
5456;SDS011;2751;49.802;9.944;2022-09-24T09:28:46;11.43;;;8.17;;
5456;SDS011;2751;49.802;9.944;2022-09-24T09:31:17;9.87;;;8.83;;
5456;SDS011;2751;49.802;9.944;2022-09-24T09:33:56;8.37;;;7.40;;
5456;SDS011;2751;49.802;9.944;2022-09-24T09:36:36;12.13;;;7.60;;
5456;SDS011;2751;49.802;9.944;2022-09-24T09:39:21;7.70;;;7.00;;
5456;SDS011;2751;49.802;9.944;2022-09-24T09:42:02;10.83;;;6.73;;
5456;SDS011;2751;49.802;9.944;2022-09-24T09:44:36;7.73;;;7.03;;
5456;SDS011;2751;49.802;9.944;2022-09-24T09:47:10;7.87;;;7.07;;
5456;SDS011;2751;49.802;9.944;2022-09-24T09:49:44;6.97;;;6.37;;
5456;SDS011;2751;49.802;9.944;2022-09-24T09:52:19;12.40;;;6.60;;
5456;SDS011;2751;49.802;9.944;2022-09-24T09:54:49;7.10;;;6.50;;
5456;SDS011;2751;49.802;9.944;2022-09-24T09:57:17;8.67;;;6.10;;
5456;SDS011;2751;49.802;9.944;2022-09-24T09:59:46;7.30;;;6.67;;
5456;SDS011;2751;49.802;9.944;2022-09-24T10:02:18;8.20;;;6.70;;
5456;SDS011;2751;49.802;9.944;2022-09-24T10:04:51;14.53;;;11.43;;
5456;SDS011;2751;49.802;9.944;2022-09-24T10:07:21;8.30;;;7.60;;
5456;SDS011;2751;49.802;9.944;2022-09-24T10:09:56;7.37;;;6.53;;
5456;SDS011;2751;49.802;9.944;2022-09-24T10:12:26;6.80;;;6.10;;
5456;SDS011;2751;49.802;9.944;2022-09-24T10:14:58;6.77;;;5.90;;
5456;SDS011;2751;49.802;9.944;2022-09-24T10:17:33;6.90;;;6.30;;
5456;SDS011;2751;49.802;9.944;2022-09-24T10:20:05;7.23;;;6.73;;
5456;SDS011;2751;49.802;9.944;2022-09-24T10:22:36;6.53;;;6.03;;
5456;SDS011;2751;49.802;9.944;2022-09-24T10:25:04;7.93;;;6.37;;
5456;SDS011;2751;49.802;9.944;2022-09-24T10:27:32;6.90;;;6.30;;
5456;SDS011;2751;49.802;9.944;2022-09-24T10:30:02;8.13;;;6.30;;
5456;SDS011;2751;49.802;9.944;2022-09-24T10:32:56;6.70;;;6.00;;
5456;SDS011;2751;49.802;9.944;2022-09-24T10:35:27;7.07;;;6.47;;
5456;SDS011;2751;49.802;9.944;2022-09-24T10:37:58;7.80;;;5.70;;
5456;SDS011;2751;49.802;9.944;2022-09-24T10:40:26;6.37;;;5.77;;
5456;SDS011;2751;49.802;9.944;2022-09-24T10:42:55;6.40;;;5.90;;
5456;SDS011;2751;49.802;9.944;2022-09-24T10:45:27;6.80;;;6.20;;
5456;SDS011;2751;49.802;9.944;2022-09-24T10:48:05;6.43;;;5.83;;
5456;SDS011;2751;49.802;9.944;2022-09-24T10:50:41;6.30;;;5.70;;
5456;SDS011;2751;49.802;9.944;2022-09-24T10:53:18;6.93;;;5.30;;
5456;SDS011;2751;49.802;9.944;2022-09-24T10:55:57;7.30;;;5.57;;
5456;SDS011;2751;49.802;9.944;2022-09-24T10:58:35;5.67;;;5.17;;
5456;SDS011;2751;49.802;9.944;2022-09-24T11:01:22;6.43;;;5.90;;
5456;SDS011;2751;49.802;9.944;2022-09-24T11:04:08;6.30;;;5.80;;
5456;SDS011;2751;49.802;9.944;2022-09-24T11:10:05;5.60;;;5.20;;
5456;SDS011;2751;49.802;9.944;2022-09-24T11:12:45;7.57;;;5.27;;
5456;SDS011;2751;49.802;9.944;2022-09-24T11:15:24;5.77;;;4.87;;
5456;SDS011;2751;49.802;9.944;2022-09-24T11:18:03;7.10;;;4.90;;
5456;SDS011;2751;49.802;9.944;2022-09-24T11:20:45;6.10;;;5.60;;
5456;SDS011;2751;49.802;9.944;2022-09-24T11:23:27;6.00;;;5.00;;
5456;SDS011;2751;49.802;9.944;2022-09-24T11:26:25;6.60;;;5.20;;
5456;SDS011;2751;49.802;9.944;2022-09-24T11:29:04;5.03;;;4.63;;
5456;SDS011;2751;49.802;9.944;2022-09-24T11:31:40;6.53;;;5.00;;
5456;SDS011;2751;49.802;9.944;2022-09-24T11:34:18;6.37;;;5.87;;
5456;SDS011;2751;49.802;9.944;2022-09-24T11:36:59;5.20;;;4.20;;
5456;SDS011;2751;49.802;9.944;2022-09-24T11:39:41;6.17;;;4.87;;
5456;SDS011;2751;49.802;9.944;2022-09-24T11:42:26;4.30;;;4.00;;
5456;SDS011;2751;49.802;9.944;2022-09-24T11:48:05;5.23;;;3.63;;
5456;SDS011;2751;49.802;9.944;2022-09-24T11:50:58;4.27;;;3.60;;
5456;SDS011;2751;49.802;9.944;2022-09-24T11:53:36;4.60;;;4.23;;
5456;SDS011;2751;49.802;9.944;2022-09-24T11:56:09;5.20;;;4.70;;
5456;SDS011;2751;49.802;9.944;2022-09-24T11:58:44;4.87;;;4.57;;
5456;SDS011;2751;49.802;9.944;2022-09-24T12:01:16;6.03;;;4.53;;
5456;SDS011;2751;49.802;9.944;2022-09-24T12:03:47;5.63;;;4.50;;
5456;SDS011;2751;49.802;9.944;2022-09-24T12:06:23;4.53;;;4.17;;
5456;SDS011;2751;49.802;9.944;2022-09-24T12:08:55;8.83;;;4.87;;
5456;SDS011;2751;49.802;9.944;2022-09-24T12:11:28;6.13;;;5.10;;
5456;SDS011;2751;49.802;9.944;2022-09-24T12:14:02;6.17;;;5.00;;
5456;SDS011;2751;49.802;9.944;2022-09-24T12:16:39;5.43;;;4.40;;
5456;SDS011;2751;49.802;9.944;2022-09-24T12:19:11;5.83;;;5.30;;
5456;SDS011;2751;49.802;9.944;2022-09-24T12:21:43;5.70;;;4.90;;
5456;SDS011;2751;49.802;9.944;2022-09-24T12:24:15;6.90;;;5.50;;
5456;SDS011;2751;49.802;9.944;2022-09-24T12:26:46;7.20;;;5.17;;
5456;SDS011;2751;49.802;9.944;2022-09-24T12:32:20;4.53;;;4.17;;
5456;SDS011;2751;49.802;9.944;2022-09-24T12:35:10;6.60;;;4.40;;
5456;SDS011;2751;49.802;9.944;2022-09-24T12:37:47;7.23;;;5.37;;
5456;SDS011;2751;49.802;9.944;2022-09-24T12:40:20;6.50;;;5.47;;
5456;SDS011;2751;49.802;9.944;2022-09-24T12:43:01;5.00;;;4.60;;
5456;SDS011;2751;49.802;9.944;2022-09-24T12:45:37;5.50;;;4.97;;
5456;SDS011;2751;49.802;9.944;2022-09-24T12:48:04;4.90;;;4.50;;
5456;SDS011;2751;49.802;9.944;2022-09-24T12:50:32;3.90;;;3.50;;
5456;SDS011;2751;49.802;9.944;2022-09-24T12:53:00;6.20;;;4.27;;
5456;SDS011;2751;49.802;9.944;2022-09-24T12:55:28;6.07;;;4.37;;
5456;SDS011;2751;49.802;9.944;2022-09-24T12:57:58;3.90;;;3.50;;
5456;SDS011;2751;49.802;9.944;2022-09-24T13:00:32;4.53;;;3.70;;
5456;SDS011;2751;49.802;9.944;2022-09-24T13:03:04;4.23;;;3.57;;
5456;SDS011;2751;49.802;9.944;2022-09-24T13:05:53;6.20;;;3.90;;
5456;SDS011;2751;49.802;9.944;2022-09-24T13:08:24;4.03;;;3.70;;
5456;SDS011;2751;49.802;9.944;2022-09-24T13:11:00;4.30;;;3.40;;
5456;SDS011;2751;49.802;9.944;2022-09-24T13:13:30;4.00;;;3.60;;
5456;SDS011;2751;49.802;9.944;2022-09-24T13:16:00;4.50;;;4.10;;
5456;SDS011;2751;49.802;9.944;2022-09-24T13:18:29;3.90;;;3.50;;
5456;SDS011;2751;49.802;9.944;2022-09-24T13:21:00;4.50;;;4.20;;
5456;SDS011;2751;49.802;9.944;2022-09-24T13:23:32;4.03;;;3.27;;
5456;SDS011;2751;49.802;9.944;2022-09-24T13:26:11;4.27;;;3.80;;
5456;SDS011;2751;49.802;9.944;2022-09-24T13:28:50;3.87;;;3.50;;
5456;SDS011;2751;49.802;9.944;2022-09-24T13:31:24;5.30;;;3.80;;
5456;SDS011;2751;49.802;9.944;2022-09-24T13:33:57;5.43;;;3.80;;
5456;SDS011;2751;49.802;9.944;2022-09-24T13:36:32;3.80;;;3.40;;
5456;SDS011;2751;49.802;9.944;2022-09-24T13:39:05;3.77;;;3.47;;
5456;SDS011;2751;49.802;9.944;2022-09-24T13:41:41;3.67;;;3.37;;
5456;SDS011;2751;49.802;9.944;2022-09-24T13:44:16;6.17;;;3.30;;
5456;SDS011;2751;49.802;9.944;2022-09-24T13:46:49;3.40;;;3.20;;
5456;SDS011;2751;49.802;9.944;2022-09-24T13:49:21;3.77;;;3.10;;
5456;SDS011;2751;49.802;9.944;2022-09-24T13:51:56;3.10;;;2.90;;
5456;SDS011;2751;49.802;9.944;2022-09-24T13:54:42;5.70;;;3.33;;
5456;SDS011;2751;49.802;9.944;2022-09-24T13:57:18;3.37;;;2.73;;
5456;SDS011;2751;49.802;9.944;2022-09-24T13:59:48;5.67;;;3.70;;
5456;SDS011;2751;49.802;9.944;2022-09-24T14:02:24;6.63;;;4.60;;
5456;SDS011;2751;49.802;9.944;2022-09-24T14:04:52;3.27;;;2.97;;
5456;SDS011;2751;49.802;9.944;2022-09-24T14:07:25;3.10;;;2.80;;
5456;SDS011;2751;49.802;9.944;2022-09-24T14:10:00;3.30;;;3.10;;
5456;SDS011;2751;49.802;9.944;2022-09-24T14:12:28;3.93;;;3.00;;
5456;SDS011;2751;49.802;9.944;2022-09-24T14:14:55;4.43;;;3.40;;
5456;SDS011;2751;49.802;9.944;2022-09-24T14:17:24;5.17;;;3.63;;
5456;SDS011;2751;49.802;9.944;2022-09-24T14:19:53;3.30;;;3.00;;
5456;SDS011;2751;49.802;9.944;2022-09-24T14:22:22;3.20;;;2.90;;
5456;SDS011;2751;49.802;9.944;2022-09-24T14:24:54;3.07;;;2.77;;
5456;SDS011;2751;49.802;9.944;2022-09-24T14:27:24;8.73;;;4.33;;
5456;SDS011;2751;49.802;9.944;2022-09-24T14:29:53;4.40;;;3.60;;
5456;SDS011;2751;49.802;9.944;2022-09-24T14:32:25;6.90;;;3.60;;
5456;SDS011;2751;49.802;9.944;2022-09-24T14:34:55;4.00;;;3.60;;
5456;SDS011;2751;49.802;9.944;2022-09-24T14:37:26;3.57;;;3.37;;
5456;SDS011;2751;49.802;9.944;2022-09-24T14:39:57;3.60;;;3.30;;
5456;SDS011;2751;49.802;9.944;2022-09-24T14:42:28;3.80;;;3.40;;
5456;SDS011;2751;49.802;9.944;2022-09-24T14:44:58;5.57;;;3.53;;
5456;SDS011;2751;49.802;9.944;2022-09-24T14:47:28;6.47;;;3.20;;
5456;SDS011;2751;49.802;9.944;2022-09-24T14:49:57;4.90;;;3.23;;
5456;SDS011;2751;49.802;9.944;2022-09-24T14:52:27;3.47;;;2.80;;
5456;SDS011;2751;49.802;9.944;2022-09-24T14:55:00;4.20;;;2.60;;
5456;SDS011;2751;49.802;9.944;2022-09-24T14:57:35;3.40;;;3.10;;
5456;SDS011;2751;49.802;9.944;2022-09-24T15:00:17;5.70;;;3.60;;
5456;SDS011;2751;49.802;9.944;2022-09-24T15:02:48;3.23;;;2.83;;
5456;SDS011;2751;49.802;9.944;2022-09-24T15:05:21;3.63;;;3.33;;
5456;SDS011;2751;49.802;9.944;2022-09-24T15:07:50;7.30;;;3.10;;
5456;SDS011;2751;49.802;9.944;2022-09-24T15:10:20;4.57;;;3.30;;
5456;SDS011;2751;49.802;9.944;2022-09-24T15:12:48;3.50;;;3.20;;
5456;SDS011;2751;49.802;9.944;2022-09-24T15:15:24;4.00;;;3.23;;
5456;SDS011;2751;49.802;9.944;2022-09-24T15:17:54;3.97;;;3.33;;
5456;SDS011;2751;49.802;9.944;2022-09-24T15:20:21;7.20;;;4.30;;
5456;SDS011;2751;49.802;9.944;2022-09-24T15:22:48;4.30;;;4.00;;
5456;SDS011;2751;49.802;9.944;2022-09-24T15:25:16;3.13;;;2.93;;
5456;SDS011;2751;49.802;9.944;2022-09-24T15:27:43;4.40;;;3.30;;
5456;SDS011;2751;49.802;9.944;2022-09-24T15:30:11;3.70;;;3.03;;
5456;SDS011;2751;49.802;9.944;2022-09-24T15:32:42;3.30;;;2.57;;
5456;SDS011;2751;49.802;9.944;2022-09-24T15:35:12;8.73;;;3.40;;
5456;SDS011;2751;49.802;9.944;2022-09-24T15:37:40;3.80;;;3.30;;
5456;SDS011;2751;49.802;9.944;2022-09-24T15:40:08;3.90;;;2.80;;
5456;SDS011;2751;49.802;9.944;2022-09-24T15:42:43;4.30;;;2.83;;
5456;SDS011;2751;49.802;9.944;2022-09-24T15:45:14;3.37;;;3.07;;
5456;SDS011;2751;49.802;9.944;2022-09-24T15:47:42;3.33;;;2.70;;